METAR Data
IDs: Format: Raw Decoded Include TAF

Data at: 2000 UTC 31 Jan 2023

KBEA 311955Z AUTO 36012G18KT 7SM OVC004 02/01 A3020 RMK AO2 T00200013